TimeCDT,TemperatureF,Dew PointF,Humidity,Sea Level PressureIn,VisibilityMPH,Wind Direction,Wind SpeedMPH,Gust SpeedMPH,PrecipitationIn,Events,Conditions,WindDirDegrees,DateUTC
12:00 AM,33.8,32.0,93,29.75,10.0,West,11.5,-,N/A,,Overcast,270,2013-04-13 05:00:00
12:25 AM,33.8,33.8,100,29.76,4.0,WSW,5.8,-,N/A,,Overcast,250,2013-04-13 05:25:00
12:36 AM,33.8,33.8,100,29.76,7.0,WSW,6.9,-,N/A,,Overcast,240,2013-04-13 05:36:00
12:43 AM,33.8,33.8,100,29.76,8.0,WSW,6.9,-,N/A,,Overcast,250,2013-04-13 05:43:00
12:53 AM,34.0,32.0,92,29.78,7.0,WSW,6.9,-,N/A,,Overcast,250,2013-04-13 05:53:00
1:40 AM,33.8,32.0,93,29.76,10.0,WSW,9.2,-,N/A,,Overcast,250,2013-04-13 06:40:00
1:53 AM,33.1,30.9,92,29.78,10.0,WSW,9.2,-,N/A,,Overcast,250,2013-04-13 06:53:00
2:20 AM,33.8,32.0,93,29.75,10.0,WSW,8.1,-,N/A,,Overcast,250,2013-04-13 07:20:00
2:53 AM,33.1,30.9,92,29.77,10.0,WSW,11.5,-,N/A,,Overcast,250,2013-04-13 07:53:00
3:53 AM,33.1,30.9,92,29.77,10.0,WSW,8.1,-,N/A,,Overcast,240,2013-04-13 08:53:00
4:53 AM,33.1,30.9,92,29.75,8.0,WSW,10.4,-,0.00,,Overcast,240,2013-04-13 09:53:00
5:20 AM,33.8,30.2,87,29.73,10.0,WSW,9.2,-,0.00,,Overcast,240,2013-04-13 10:20:00
5:53 AM,33.1,30.0,89,29.76,10.0,WSW,12.7,-,0.00,,Overcast,250,2013-04-13 10:53:00
6:53 AM,33.1,30.0,89,29.77,10.0,West,11.5,-,0.00,,Overcast,260,2013-04-13 11:53:00
7:27 AM,32.0,30.2,93,29.76,0.8,WNW,9.2,19.6,0.00,Snow,Light Snow,290,2013-04-13 12:27:00
7:37 AM,32.0,30.2,93,29.76,2.0,West,11.5,-,0.00,Snow,Light Snow,270,2013-04-13 12:37:00
7:45 AM,33.8,30.2,87,29.76,7.0,West,12.7,-,0.00,Snow,Light Snow,270,2013-04-13 12:45:00
7:53 AM,32.0,30.0,92,29.79,6.0,West,12.7,-,0.00,Snow,Light Snow,280,2013-04-13 12:53:00
8:03 AM,32.0,28.4,87,29.77,4.0,West,13.8,-,0.00,Snow,Light Snow,280,2013-04-13 13:03:00
8:28 AM,32.0,28.4,87,29.78,2.5,West,15.0,21.9,0.00,Snow,Light Snow,280,2013-04-13 13:28:00
8:41 AM,32.0,28.4,87,29.78,6.0,WNW,11.5,-,0.00,Snow,Light Snow,290,2013-04-13 13:41:00
8:48 AM,32.0,28.4,87,29.78,9.0,WNW,13.8,19.6,0.00,,Overcast,290,2013-04-13 13:48:00
8:53 AM,32.0,27.0,82,29.80,10.0,West,13.8,-,0.00,,Overcast,280,2013-04-13 13:53:00
9:42 AM,33.8,26.6,75,29.79,10.0,West,16.1,26.5,N/A,,Overcast,280,2013-04-13 14:42:00
9:53 AM,34.0,27.0,75,29.82,10.0,WNW,18.4,24.2,N/A,,Mostly Cloudy,290,2013-04-13 14:53:00
10:20 AM,35.6,28.4,75,29.80,10.0,WNW,12.7,25.3,N/A,,Scattered Clouds,290,2013-04-13 15:20:00
10:53 AM,35.1,26.1,70,29.83,10.0,WNW,13.8,24.2,N/A,,Mostly Cloudy,300,2013-04-13 15:53:00
11:53 AM,36.0,26.1,67,29.85,10.0,West,19.6,26.5,N/A,,Mostly Cloudy,280,2013-04-13 16:53:00
12:53 PM,36.0,26.1,67,29.86,10.0,West,17.3,28.8,N/A,,Overcast,280,2013-04-13 17:53:00
1:53 PM,37.0,25.0,62,29.87,10.0,West,17.3,25.3,N/A,,Overcast,280,2013-04-13 18:53:00
2:53 PM,37.9,27.0,65,29.88,10.0,WNW,12.7,20.7,N/A,,Overcast,290,2013-04-13 19:53:00
3:53 PM,37.9,28.0,68,29.88,10.0,West,19.6,24.2,0.00,,Overcast,270,2013-04-13 20:53:00
4:53 PM,36.0,28.9,76,29.90,10.0,West,15.0,-,N/A,,Overcast,260,2013-04-13 21:53:00
5:00 PM,35.6,28.4,75,29.88,10.0,West,15.0,21.9,N/A,,Overcast,260,2013-04-13 22:00:00
5:53 PM,36.0,28.0,73,29.91,7.0,WNW,10.4,-,0.00,Snow,Light Snow,290,2013-04-13 22:53:00
6:32 PM,35.6,28.4,75,29.90,9.0,West,13.8,-,0.01,,Overcast,260,2013-04-13 23:32:00
7:53 PM,35.1,28.0,76,29.94,10.0,West,9.2,-,N/A,,Overcast,270,2013-04-14 00:53:00
8:53 PM,35.1,27.0,72,29.97,10.0,West,9.2,-,N/A,,Overcast,280,2013-04-14 01:53:00
9:53 PM,34.0,28.9,82,29.98,10.0,WNW,5.8,-,N/A,,Overcast,300,2013-04-14 02:53:00
10:09 PM,33.8,30.2,87,29.96,10.0,WNW,8.1,-,N/A,,Overcast,290,2013-04-14 03:09:00
10:23 PM,33.8,30.2,87,29.96,9.0,WNW,8.1,-,N/A,,Overcast,300,2013-04-14 03:23:00
10:53 PM,33.1,28.9,85,29.99,10.0,West,5.8,-,N/A,,Overcast,260,2013-04-14 03:53:00
11:53 PM,33.1,30.0,89,30.00,10.0,West,4.6,-,N/A,,Overcast,270,2013-04-14 04:53:00